Аэропорт: Челябинск. Челябинск

ICAO: USCC

METAR:
2018/05/20 19:30
USCC 201930Z 23005MPS 3900 BR SCT020CB 15/12 Q1012 R27/250050 TEMPO 1100 BR VV005 RMK QFE739
METAR:
2018/05/20 18:24
TAF TAF USCC 201700Z 2018/2118 30006MPS 9999 BKN020CB 
      TEMPO 2018/2021 30011MPS 3100 -SHRA BKN011CB 
      TEMPO 2021/2112 33011MPS 3100 -SHRA BKN011CB